King River, Nevada
Current Conditions -  °F | °C
As of 7:56 PM on Friday 19 Dec 2014 (Local Time) from KWMC Reporting Station
Clear Clear  
Wind Chill: 26°   Ceiling: Unl
Heat Index: 35°   Visibility: 10mi
Dew Point: 32°   Wind: 15mph
Humidity: 89%   Direction: 160°SSE
Pressure: 30.11"   Gusts: NA
Location:  41.7393°N, 118.104°W
Report Text: KWMC 200356Z AUTO 16013KT 10SM CLR 02/00 A3011 RMK AO2 SLP203 T00170000
Loading
Personal Weather Stations






























Interactive Weather Map New forecast layout! Learn more

10-Day Weather Forecast

Advertisements
Track Severe Weather on mobile